Ruleville, Mississippi
Current Conditions -  °F | °C
As of 11:35 PM on Friday 31 Oct 2014 (Local Time) from KRNV Reporting Station
Clear Clear  
Wind Chill: 36°   Ceiling: Unl
Heat Index: 41°   Visibility: 10mi
Dew Point: 31°   Wind: 9mph
Humidity: 66%   Direction: 10°N
Pressure: 30.33"   Gusts: NA
Location:  33.73°N, 90.55°W
Report Text: KRNV 010435Z AUTO 01008KT 10SM CLR 05/M01 A3033 RMK AO2 T00521006
Loading
Personal Weather Stations






























Interactive Weather Map New forecast layout! Learn more

10-Day Weather Forecast

Advertisements
Track Severe Weather on mobile